Fort Assiniboine, Alberta

3:51 PM MDT on July 05, 2015 (GMT -0600)
Whitecourt | | Change Station
CLOSE
Current Station
Airport
Location: Whitecourt,
Elevation: 2566 ft
Nearby Weather Stations

Elev 2566 ft 54.14 °N, 115.79 °W | Updated 51 minutes ago

Mostly Cloudy
Mostly Cloudy
64 °F
Feels Like 64 °F
N
5
Wind Variable Wind from Variable

Today
High -- | Low -- °F
--% Chance of Precip.
Yesterday
High -- | Low -- °F
Precip. -- in
5:12 AM 10:14 PM
Waning Gibbous, 82% visible
Pressure 30.23 in
Visibility 15.0 miles
Clouds Scattered Clouds 3000 ft
Mostly Cloudy 4500 ft
Mostly Cloudy 23000 ft
Dew Point 39 °F
Humidity 40%
Rainfall 0.00 in
Snow Depth Not available.
UV 5 out of 12
Pollen Not available.
Air Quality Not available.
Flu Activity Not available.
METAR CYZU 052100Z VRB04KT 15SM SCT030 BKN045 BKN230 18/04 A3020 RMK CU3SC3CI1 SLP237 DENSITY ALT 3100FT

More Conditions Fewer Conditions

Pressure 30.23 in
Visibility 15.0 miles
Clouds Scattered Clouds 3000 ft
Mostly Cloudy 4500 ft
Mostly Cloudy 23000 ft
Dew Point 39 °F
Humidity 40%
Rainfall 0.00 in
Snow Depth Not available.
UV 5 out of 12
Pollen Not available.
Air Quality Not available.
Flu Activity Not available.
METAR CYZU 052100Z VRB04KT 15SM SCT030 BKN045 BKN230 18/04 A3020 RMK CU3SC3CI1 SLP237 DENSITY ALT 3100FT

More Conditions Fewer Conditions

10-Day Weather Forecast

×

Almanac

Astronomy

Jul. 05, 2015 Rise Set
Actual Time
Civil Twilight
Nautical Twilight
Astronomical Twilight
Moon
Length of Visible Light
Length of Day
Tomorrow will be .
, % of the Moon is Illuminated

Today's Extremes

Country Highs Country Lows

Community

WunderPhotos

Upload Photos

1,835,400 photos uploaded!

WunderBlogs® & News

Nearby

Air Quality

  Air Quality AQ Index Pollutant
Not available.

Snow Depth

Station Depth Elevation

Earthquake Activity

City Distance Mag. Time & Date
Minimum magnitude displayed is 2.5.

Coastal Water Temperatures

Place Temperature

Stations

Nearby Weather Stations

Station Location Temp. Windchill Dew Point Humidity Wind Precip. Elev Updated Type